sensor_id;sensor_type;location;lat;lon;timestamp;P1;durP1;ratioP1;P2;durP2;ratioP2
66521;SDS011;53349;53.538;8.584;2024-02-04T00:01:16;7.57;;;1.38;;
66521;SDS011;53349;53.538;8.584;2024-02-04T00:03:41;8.27;;;1.23;;
66521;SDS011;53349;53.538;8.584;2024-02-04T00:06:08;10.17;;;1.40;;
66521;SDS011;53349;53.538;8.584;2024-02-04T00:08:33;10.43;;;1.58;;
66521;SDS011;53349;53.538;8.584;2024-02-04T00:10:58;8.17;;;1.33;;
66521;SDS011;53349;53.538;8.584;2024-02-04T00:13:23;10.50;;;1.20;;
66521;SDS011;53349;53.538;8.584;2024-02-04T00:15:58;11.07;;;1.27;;
66521;SDS011;53349;53.538;8.584;2024-02-04T00:18:24;11.13;;;1.38;;
66521;SDS011;53349;53.538;8.584;2024-02-04T00:20:50;7.27;;;1.17;;
66521;SDS011;53349;53.538;8.584;2024-02-04T00:23:15;10.23;;;1.03;;
66521;SDS011;53349;53.538;8.584;2024-02-04T00:25:41;8.02;;;1.25;;
66521;SDS011;53349;53.538;8.584;2024-02-04T00:28:07;9.13;;;1.63;;
66521;SDS011;53349;53.538;8.584;2024-02-04T00:30:33;9.55;;;1.40;;
66521;SDS011;53349;53.538;8.584;2024-02-04T00:32:58;8.20;;;1.70;;
66521;SDS011;53349;53.538;8.584;2024-02-04T00:35:23;8.07;;;1.30;;
66521;SDS011;53349;53.538;8.584;2024-02-04T00:37:49;10.55;;;1.40;;
66521;SDS011;53349;53.538;8.584;2024-02-04T00:40:15;7.13;;;1.37;;
66521;SDS011;53349;53.538;8.584;2024-02-04T00:42:40;7.20;;;1.10;;
66521;SDS011;53349;53.538;8.584;2024-02-04T00:45:05;10.50;;;1.53;;
66521;SDS011;53349;53.538;8.584;2024-02-04T00:47:31;11.53;;;1.40;;
66521;SDS011;53349;53.538;8.584;2024-02-04T00:49:57;9.77;;;1.27;;
66521;SDS011;53349;53.538;8.584;2024-02-04T00:52:22;10.43;;;1.25;;
66521;SDS011;53349;53.538;8.584;2024-02-04T00:54:47;14.37;;;1.47;;
66521;SDS011;53349;53.538;8.584;2024-02-04T00:57:13;11.23;;;1.60;;
66521;SDS011;53349;53.538;8.584;2024-02-04T00:59:38;9.33;;;1.33;;
66521;SDS011;53349;53.538;8.584;2024-02-04T01:02:03;7.30;;;1.20;;
66521;SDS011;53349;53.538;8.584;2024-02-04T01:04:33;11.35;;;2.03;;
66521;SDS011;53349;53.538;8.584;2024-02-04T01:06:58;9.97;;;1.80;;
66521;SDS011;53349;53.538;8.584;2024-02-04T01:09:24;8.23;;;1.40;;
66521;SDS011;53349;53.538;8.584;2024-02-04T01:11:49;7.83;;;1.93;;
66521;SDS011;53349;53.538;8.584;2024-02-04T01:14:15;10.00;;;1.90;;
66521;SDS011;53349;53.538;8.584;2024-02-04T01:16:40;10.32;;;1.40;;
66521;SDS011;53349;53.538;8.584;2024-02-04T01:19:06;8.40;;;1.40;;
66521;SDS011;53349;53.538;8.584;2024-02-04T01:21:32;7.50;;;1.50;;
66521;SDS011;53349;53.538;8.584;2024-02-04T01:23:58;7.63;;;1.60;;
66521;SDS011;53349;53.538;8.584;2024-02-04T01:26:24;11.02;;;1.70;;
66521;SDS011;53349;53.538;8.584;2024-02-04T01:28:50;8.50;;;1.70;;
66521;SDS011;53349;53.538;8.584;2024-02-04T01:31:16;10.37;;;1.67;;
66521;SDS011;53349;53.538;8.584;2024-02-04T01:33:47;10.35;;;1.70;;
66521;SDS011;53349;53.538;8.584;2024-02-04T01:36:12;12.93;;;1.70;;
66521;SDS011;53349;53.538;8.584;2024-02-04T01:38:38;10.33;;;1.53;;
66521;SDS011;53349;53.538;8.584;2024-02-04T01:41:04;9.73;;;1.63;;
66521;SDS011;53349;53.538;8.584;2024-02-04T01:43:29;7.45;;;1.73;;
66521;SDS011;53349;53.538;8.584;2024-02-04T01:45:55;7.80;;;1.43;;
66521;SDS011;53349;53.538;8.584;2024-02-04T01:48:20;9.03;;;2.07;;
66521;SDS011;53349;53.538;8.584;2024-02-04T01:50:46;10.07;;;1.88;;
66521;SDS011;53349;53.538;8.584;2024-02-04T01:53:13;8.45;;;2.40;;
66521;SDS011;53349;53.538;8.584;2024-02-04T01:55:39;9.38;;;1.58;;
66521;SDS011;53349;53.538;8.584;2024-02-04T01:58:05;11.90;;;2.03;;
66521;SDS011;53349;53.538;8.584;2024-02-04T02:00:31;7.88;;;1.48;;
66521;SDS011;53349;53.538;8.584;2024-02-04T02:02:57;9.07;;;1.40;;
66521;SDS011;53349;53.538;8.584;2024-02-04T02:05:24;11.20;;;1.85;;
66521;SDS011;53349;53.538;8.584;2024-02-04T02:07:49;11.27;;;2.03;;
66521;SDS011;53349;53.538;8.584;2024-02-04T02:10:15;7.40;;;1.43;;
66521;SDS011;53349;53.538;8.584;2024-02-04T02:12:45;9.70;;;2.23;;
66521;SDS011;53349;53.538;8.584;2024-02-04T02:15:23;9.68;;;1.80;;
66521;SDS011;53349;53.538;8.584;2024-02-04T02:23:12;7.97;;;1.77;;
66521;SDS011;53349;53.538;8.584;2024-02-04T02:25:40;8.80;;;2.20;;
66521;SDS011;53349;53.538;8.584;2024-02-04T02:28:06;10.60;;;2.65;;
66521;SDS011;53349;53.538;8.584;2024-02-04T02:30:31;12.82;;;2.92;;
66521;SDS011;53349;53.538;8.584;2024-02-04T02:32:57;11.30;;;3.13;;
66521;SDS011;53349;53.538;8.584;2024-02-04T02:35:22;9.18;;;2.15;;
66521;SDS011;53349;53.538;8.584;2024-02-04T02:37:55;13.03;;;2.50;;
66521;SDS011;53349;53.538;8.584;2024-02-04T02:40:26;9.45;;;2.35;;
66521;SDS011;53349;53.538;8.584;2024-02-04T02:42:57;6.67;;;2.37;;
66521;SDS011;53349;53.538;8.584;2024-02-04T02:45:24;12.38;;;2.70;;
66521;SDS011;53349;53.538;8.584;2024-02-04T02:47:52;12.10;;;2.42;;
66521;SDS011;53349;53.538;8.584;2024-02-04T02:50:21;10.75;;;2.90;;
66521;SDS011;53349;53.538;8.584;2024-02-04T02:52:47;10.85;;;2.63;;
66521;SDS011;53349;53.538;8.584;2024-02-04T02:55:12;9.33;;;2.50;;
66521;SDS011;53349;53.538;8.584;2024-02-04T02:57:37;13.27;;;2.50;;
66521;SDS011;53349;53.538;8.584;2024-02-04T03:00:04;12.77;;;2.80;;
66521;SDS011;53349;53.538;8.584;2024-02-04T03:02:29;11.05;;;2.42;;
66521;SDS011;53349;53.538;8.584;2024-02-04T03:04:56;15.70;;;3.43;;
66521;SDS011;53349;53.538;8.584;2024-02-04T03:07:21;12.80;;;2.85;;
66521;SDS011;53349;53.538;8.584;2024-02-04T03:09:46;9.93;;;2.53;;
66521;SDS011;53349;53.538;8.584;2024-02-04T03:12:11;10.10;;;2.47;;
66521;SDS011;53349;53.538;8.584;2024-02-04T03:14:37;9.07;;;2.50;;
66521;SDS011;53349;53.538;8.584;2024-02-04T03:17:03;10.47;;;2.10;;
66521;SDS011;53349;53.538;8.584;2024-02-04T03:19:30;8.97;;;2.03;;
66521;SDS011;53349;53.538;8.584;2024-02-04T03:21:56;12.00;;;2.50;;
66521;SDS011;53349;53.538;8.584;2024-02-04T03:24:23;9.05;;;2.60;;
66521;SDS011;53349;53.538;8.584;2024-02-04T03:26:48;9.27;;;2.33;;
66521;SDS011;53349;53.538;8.584;2024-02-04T03:29:13;14.20;;;2.23;;
66521;SDS011;53349;53.538;8.584;2024-02-04T03:31:38;10.20;;;2.60;;
66521;SDS011;53349;53.538;8.584;2024-02-04T03:34:04;11.07;;;2.30;;
66521;SDS011;53349;53.538;8.584;2024-02-04T03:36:30;10.93;;;2.63;;
66521;SDS011;53349;53.538;8.584;2024-02-04T03:38:57;11.15;;;2.75;;
66521;SDS011;53349;53.538;8.584;2024-02-04T03:41:24;14.60;;;2.70;;
66521;SDS011;53349;53.538;8.584;2024-02-04T03:43:51;12.80;;;2.23;;
66521;SDS011;53349;53.538;8.584;2024-02-04T03:46:16;11.50;;;2.20;;
66521;SDS011;53349;53.538;8.584;2024-02-04T03:48:41;10.67;;;2.10;;
66521;SDS011;53349;53.538;8.584;2024-02-04T03:51:14;11.43;;;2.22;;
66521;SDS011;53349;53.538;8.584;2024-02-04T03:53:39;10.98;;;2.38;;
66521;SDS011;53349;53.538;8.584;2024-02-04T03:56:05;14.17;;;2.33;;
66521;SDS011;53349;53.538;8.584;2024-02-04T03:58:32;8.80;;;2.10;;
66521;SDS011;53349;53.538;8.584;2024-02-04T04:00:57;12.52;;;2.28;;
66521;SDS011;53349;53.538;8.584;2024-02-04T04:03:23;14.33;;;2.57;;
66521;SDS011;53349;53.538;8.584;2024-02-04T04:05:49;9.03;;;1.90;;
66521;SDS011;53349;53.538;8.584;2024-02-04T04:08:16;11.13;;;2.38;;
66521;SDS011;53349;53.538;8.584;2024-02-04T04:10:42;10.53;;;2.23;;
66521;SDS011;53349;53.538;8.584;2024-02-04T04:13:07;15.80;;;2.33;;
66521;SDS011;53349;53.538;8.584;2024-02-04T04:15:33;11.77;;;2.10;;
66521;SDS011;53349;53.538;8.584;2024-02-04T04:17:58;12.63;;;2.00;;
66521;SDS011;53349;53.538;8.584;2024-02-04T04:20:24;10.83;;;2.40;;
66521;SDS011;53349;53.538;8.584;2024-02-04T04:22:49;7.15;;;1.83;;
66521;SDS011;53349;53.538;8.584;2024-02-04T04:25:15;12.87;;;2.00;;
66521;SDS011;53349;53.538;8.584;2024-02-04T04:27:40;14.07;;;1.80;;
66521;SDS011;53349;53.538;8.584;2024-02-04T04:30:05;10.17;;;1.90;;
66521;SDS011;53349;53.538;8.584;2024-02-04T04:32:31;11.60;;;1.92;;
66521;SDS011;53349;53.538;8.584;2024-02-04T04:34:58;9.15;;;1.67;;
66521;SDS011;53349;53.538;8.584;2024-02-04T04:37:23;11.48;;;2.10;;
66521;SDS011;53349;53.538;8.584;2024-02-04T04:39:49;11.02;;;1.50;;
66521;SDS011;53349;53.538;8.584;2024-02-04T04:42:15;9.85;;;1.67;;
66521;SDS011;53349;53.538;8.584;2024-02-04T04:44:43;11.32;;;1.70;;
66521;SDS011;53349;53.538;8.584;2024-02-04T04:47:08;13.53;;;1.67;;
66521;SDS011;53349;53.538;8.584;2024-02-04T04:49:33;12.95;;;1.80;;
66521;SDS011;53349;53.538;8.584;2024-02-04T04:51:59;10.77;;;1.93;;
66521;SDS011;53349;53.538;8.584;2024-02-04T04:54:24;10.40;;;1.63;;
66521;SDS011;53349;53.538;8.584;2024-02-04T04:56:50;13.10;;;1.37;;
66521;SDS011;53349;53.538;8.584;2024-02-04T04:59:16;10.77;;;1.42;;
66521;SDS011;53349;53.538;8.584;2024-02-04T05:01:45;9.13;;;1.50;;
66521;SDS011;53349;53.538;8.584;2024-02-04T05:04:11;10.23;;;1.65;;
66521;SDS011;53349;53.538;8.584;2024-02-04T05:06:37;12.53;;;1.77;;
66521;SDS011;53349;53.538;8.584;2024-02-04T05:09:02;10.93;;;1.83;;
66521;SDS011;53349;53.538;8.584;2024-02-04T05:11:27;16.13;;;1.97;;
66521;SDS011;53349;53.538;8.584;2024-02-04T05:13:52;9.77;;;1.53;;
66521;SDS011;53349;53.538;8.584;2024-02-04T05:16:17;10.13;;;1.37;;
66521;SDS011;53349;53.538;8.584;2024-02-04T05:18:43;13.70;;;2.00;;
66521;SDS011;53349;53.538;8.584;2024-02-04T05:21:08;13.77;;;1.47;;
66521;SDS011;53349;53.538;8.584;2024-02-04T05:23:33;9.50;;;1.30;;
66521;SDS011;53349;53.538;8.584;2024-02-04T05:26:02;11.13;;;2.33;;
66521;SDS011;53349;53.538;8.584;2024-02-04T05:28:31;14.77;;;1.70;;
66521;SDS011;53349;53.538;8.584;2024-02-04T05:30:56;10.77;;;1.50;;
66521;SDS011;53349;53.538;8.584;2024-02-04T05:33:21;11.77;;;2.23;;
66521;SDS011;53349;53.538;8.584;2024-02-04T05:35:47;11.73;;;1.47;;
66521;SDS011;53349;53.538;8.584;2024-02-04T05:38:13;13.33;;;1.80;;
66521;SDS011;53349;53.538;8.584;2024-02-04T05:40:38;8.90;;;1.45;;
66521;SDS011;53349;53.538;8.584;2024-02-04T05:43:04;10.73;;;1.63;;
66521;SDS011;53349;53.538;8.584;2024-02-04T05:45:32;9.63;;;1.63;;
66521;SDS011;53349;53.538;8.584;2024-02-04T05:47:57;9.52;;;1.30;;
66521;SDS011;53349;53.538;8.584;2024-02-04T05:50:24;9.93;;;1.30;;
66521;SDS011;53349;53.538;8.584;2024-02-04T05:52:50;12.37;;;1.50;;
66521;SDS011;53349;53.538;8.584;2024-02-04T05:55:22;8.60;;;1.02;;
66521;SDS011;53349;53.538;8.584;2024-02-04T05:57:47;12.18;;;1.95;;
66521;SDS011;53349;53.538;8.584;2024-02-04T06:00:12;19.07;;;2.30;;
66521;SDS011;53349;53.538;8.584;2024-02-04T06:02:41;9.38;;;1.40;;
66521;SDS011;53349;53.538;8.584;2024-02-04T06:05:06;11.30;;;1.57;;
66521;SDS011;53349;53.538;8.584;2024-02-04T06:07:31;8.57;;;1.03;;
66521;SDS011;53349;53.538;8.584;2024-02-04T06:09:58;16.47;;;1.40;;
66521;SDS011;53349;53.538;8.584;2024-02-04T06:12:24;12.60;;;1.65;;
66521;SDS011;53349;53.538;8.584;2024-02-04T06:14:50;9.80;;;1.37;;
66521;SDS011;53349;53.538;8.584;2024-02-04T06:17:16;11.50;;;1.40;;
66521;SDS011;53349;53.538;8.584;2024-02-04T06:19:47;12.88;;;1.88;;
66521;SDS011;53349;53.538;8.584;2024-02-04T06:22:12;7.33;;;1.20;;
66521;SDS011;53349;53.538;8.584;2024-02-04T06:24:37;10.90;;;2.13;;
66521;SDS011;53349;53.538;8.584;2024-02-04T06:27:05;6.13;;;1.37;;
66521;SDS011;53349;53.538;8.584;2024-02-04T06:29:30;11.50;;;1.10;;
66521;SDS011;53349;53.538;8.584;2024-02-04T06:31:56;9.00;;;1.70;;
66521;SDS011;53349;53.538;8.584;2024-02-04T06:34:21;10.10;;;1.47;;
66521;SDS011;53349;53.538;8.584;2024-02-04T06:36:46;11.90;;;1.43;;
66521;SDS011;53349;53.538;8.584;2024-02-04T06:39:11;10.37;;;1.70;;
66521;SDS011;53349;53.538;8.584;2024-02-04T06:41:37;8.27;;;1.30;;
66521;SDS011;53349;53.538;8.584;2024-02-04T06:44:03;8.63;;;1.67;;
66521;SDS011;53349;53.538;8.584;2024-02-04T06:46:28;7.38;;;1.52;;
66521;SDS011;53349;53.538;8.584;2024-02-04T06:48:53;10.13;;;1.70;;
66521;SDS011;53349;53.538;8.584;2024-02-04T06:51:19;12.50;;;1.57;;
66521;SDS011;53349;53.538;8.584;2024-02-04T06:53:44;14.17;;;1.60;;
66521;SDS011;53349;53.538;8.584;2024-02-04T06:56:09;10.70;;;1.63;;
66521;SDS011;53349;53.538;8.584;2024-02-04T06:58:37;6.90;;;1.30;;
66521;SDS011;53349;53.538;8.584;2024-02-04T07:01:02;13.50;;;1.60;;
66521;SDS011;53349;53.538;8.584;2024-02-04T07:03:29;8.60;;;1.52;;
66521;SDS011;53349;53.538;8.584;2024-02-04T07:05:57;11.93;;;1.60;;
66521;SDS011;53349;53.538;8.584;2024-02-04T07:08:22;15.50;;;1.87;;
66521;SDS011;53349;53.538;8.584;2024-02-04T07:10:48;9.40;;;1.60;;
66521;SDS011;53349;53.538;8.584;2024-02-04T07:13:15;12.18;;;1.63;;
66521;SDS011;53349;53.538;8.584;2024-02-04T07:15:43;12.88;;;2.10;;
66521;SDS011;53349;53.538;8.584;2024-02-04T07:18:08;13.80;;;1.57;;
66521;SDS011;53349;53.538;8.584;2024-02-04T07:20:33;12.40;;;1.95;;
66521;SDS011;53349;53.538;8.584;2024-02-04T07:22:59;10.27;;;1.87;;
66521;SDS011;53349;53.538;8.584;2024-02-04T07:25:24;13.10;;;1.97;;
66521;SDS011;53349;53.538;8.584;2024-02-04T07:27:49;10.43;;;1.53;;
66521;SDS011;53349;53.538;8.584;2024-02-04T07:30:14;12.27;;;1.90;;
66521;SDS011;53349;53.538;8.584;2024-02-04T07:32:40;9.20;;;1.60;;
66521;SDS011;53349;53.538;8.584;2024-02-04T07:35:05;10.27;;;2.07;;
66521;SDS011;53349;53.538;8.584;2024-02-04T07:37:34;13.63;;;2.03;;
66521;SDS011;53349;53.538;8.584;2024-02-04T07:39:59;12.75;;;2.42;;
66521;SDS011;53349;53.538;8.584;2024-02-04T07:42:26;9.53;;;2.27;;
66521;SDS011;53349;53.538;8.584;2024-02-04T07:44:53;11.73;;;2.28;;
66521;SDS011;53349;53.538;8.584;2024-02-04T07:47:18;12.50;;;2.27;;
66521;SDS011;53349;53.538;8.584;2024-02-04T07:49:44;10.23;;;2.27;;
66521;SDS011;53349;53.538;8.584;2024-02-04T07:52:09;12.93;;;2.30;;
66521;SDS011;53349;53.538;8.584;2024-02-04T07:54:35;11.93;;;1.80;;
66521;SDS011;53349;53.538;8.584;2024-02-04T07:57:02;12.50;;;2.23;;
66521;SDS011;53349;53.538;8.584;2024-02-04T07:59:31;13.88;;;2.38;;
66521;SDS011;53349;53.538;8.584;2024-02-04T08:01:59;12.93;;;2.30;;
66521;SDS011;53349;53.538;8.584;2024-02-04T08:04:24;20.00;;;3.33;;
66521;SDS011;53349;53.538;8.584;2024-02-04T08:06:50;61.13;;;19.10;;
66521;SDS011;53349;53.538;8.584;2024-02-04T08:09:15;45.80;;;13.67;;
66521;SDS011;53349;53.538;8.584;2024-02-04T08:11:40;21.93;;;5.00;;
66521;SDS011;53349;53.538;8.584;2024-02-04T08:14:06;14.50;;;2.60;;
66521;SDS011;53349;53.538;8.584;2024-02-04T08:16:32;10.00;;;2.42;;
66521;SDS011;53349;53.538;8.584;2024-02-04T08:18:57;14.33;;;2.93;;
66521;SDS011;53349;53.538;8.584;2024-02-04T08:21:22;14.23;;;2.77;;
66521;SDS011;53349;53.538;8.584;2024-02-04T08:23:48;13.77;;;2.10;;
66521;SDS011;53349;53.538;8.584;2024-02-04T08:26:13;17.90;;;2.72;;
66521;SDS011;53349;53.538;8.584;2024-02-04T08:28:39;13.17;;;3.23;;
66521;SDS011;53349;53.538;8.584;2024-02-04T08:31:05;15.43;;;2.97;;
66521;SDS011;53349;53.538;8.584;2024-02-04T08:33:30;12.30;;;2.85;;
66521;SDS011;53349;53.538;8.584;2024-02-04T08:35:56;13.57;;;2.42;;
66521;SDS011;53349;53.538;8.584;2024-02-04T08:38:21;9.73;;;2.22;;
66521;SDS011;53349;53.538;8.584;2024-02-04T08:40:47;16.90;;;2.47;;
66521;SDS011;53349;53.538;8.584;2024-02-04T08:43:12;11.60;;;2.07;;
66521;SDS011;53349;53.538;8.584;2024-02-04T08:45:38;15.77;;;2.47;;
66521;SDS011;53349;53.538;8.584;2024-02-04T08:48:03;11.68;;;1.88;;
66521;SDS011;53349;53.538;8.584;2024-02-04T08:50:29;13.80;;;2.17;;
66521;SDS011;53349;53.538;8.584;2024-02-04T08:52:54;15.18;;;2.50;;
66521;SDS011;53349;53.538;8.584;2024-02-04T08:55:21;11.90;;;2.35;;
66521;SDS011;53349;53.538;8.584;2024-02-04T08:57:47;19.23;;;2.35;;
66521;SDS011;53349;53.538;8.584;2024-02-04T09:00:12;18.08;;;2.78;;
66521;SDS011;53349;53.538;8.584;2024-02-04T09:02:38;12.17;;;1.97;;
66521;SDS011;53349;53.538;8.584;2024-02-04T09:05:04;13.90;;;2.43;;
66521;SDS011;53349;53.538;8.584;2024-02-04T09:07:30;13.63;;;2.40;;
66521;SDS011;53349;53.538;8.584;2024-02-04T09:09:55;13.63;;;2.33;;
66521;SDS011;53349;53.538;8.584;2024-02-04T09:12:21;18.65;;;2.70;;
66521;SDS011;53349;53.538;8.584;2024-02-04T09:14:50;12.20;;;2.10;;
66521;SDS011;53349;53.538;8.584;2024-02-04T09:17:16;16.10;;;2.28;;
66521;SDS011;53349;53.538;8.584;2024-02-04T09:19:41;12.80;;;1.73;;
66521;SDS011;53349;53.538;8.584;2024-02-04T09:22:07;14.02;;;1.80;;
66521;SDS011;53349;53.538;8.584;2024-02-04T09:24:33;14.37;;;2.20;;
66521;SDS011;53349;53.538;8.584;2024-02-04T09:27:00;14.43;;;1.90;;
66521;SDS011;53349;53.538;8.584;2024-02-04T09:29:25;16.65;;;2.20;;
66521;SDS011;53349;53.538;8.584;2024-02-04T09:31:51;18.00;;;2.67;;
66521;SDS011;53349;53.538;8.584;2024-02-04T09:34:16;21.30;;;2.60;;
66521;SDS011;53349;53.538;8.584;2024-02-04T09:36:43;13.23;;;2.50;;
66521;SDS011;53349;53.538;8.584;2024-02-04T09:39:08;19.70;;;2.65;;
66521;SDS011;53349;53.538;8.584;2024-02-04T09:41:34;14.63;;;2.10;;
66521;SDS011;53349;53.538;8.584;2024-02-04T09:43:59;15.80;;;2.03;;
66521;SDS011;53349;53.538;8.584;2024-02-04T09:46:24;14.03;;;2.27;;
66521;SDS011;53349;53.538;8.584;2024-02-04T09:48:51;14.80;;;2.10;;
66521;SDS011;53349;53.538;8.584;2024-02-04T09:51:16;17.67;;;2.13;;
66521;SDS011;53349;53.538;8.584;2024-02-04T09:53:45;11.00;;;2.13;;
66521;SDS011;53349;53.538;8.584;2024-02-04T09:56:12;11.88;;;2.25;;
66521;SDS011;53349;53.538;8.584;2024-02-04T09:58:38;14.98;;;2.13;;
66521;SDS011;53349;53.538;8.584;2024-02-04T10:01:04;18.73;;;2.70;;
66521;SDS011;53349;53.538;8.584;2024-02-04T10:03:29;12.57;;;2.50;;
66521;SDS011;53349;53.538;8.584;2024-02-04T10:05:56;15.10;;;2.28;;
66521;SDS011;53349;53.538;8.584;2024-02-04T10:08:22;17.70;;;2.53;;
66521;SDS011;53349;53.538;8.584;2024-02-04T10:10:47;11.65;;;2.55;;
66521;SDS011;53349;53.538;8.584;2024-02-04T10:13:14;19.05;;;2.38;;
66521;SDS011;53349;53.538;8.584;2024-02-04T10:15:40;13.57;;;2.70;;
66521;SDS011;53349;53.538;8.584;2024-02-04T10:18:06;14.07;;;2.37;;
66521;SDS011;53349;53.538;8.584;2024-02-04T10:20:31;13.65;;;2.28;;
66521;SDS011;53349;53.538;8.584;2024-02-04T10:22:57;7.40;;;1.80;;
66521;SDS011;53349;53.538;8.584;2024-02-04T10:25:25;10.73;;;2.17;;
66521;SDS011;53349;53.538;8.584;2024-02-04T10:27:50;19.10;;;2.78;;
66521;SDS011;53349;53.538;8.584;2024-02-04T10:30:18;14.73;;;2.33;;
66521;SDS011;53349;53.538;8.584;2024-02-04T10:32:45;15.07;;;2.25;;
66521;SDS011;53349;53.538;8.584;2024-02-04T10:35:14;12.50;;;2.88;;
66521;SDS011;53349;53.538;8.584;2024-02-04T10:37:41;14.43;;;2.23;;
66521;SDS011;53349;53.538;8.584;2024-02-04T10:40:06;14.48;;;2.70;;
66521;SDS011;53349;53.538;8.584;2024-02-04T10:42:32;12.40;;;2.27;;
66521;SDS011;53349;53.538;8.584;2024-02-04T10:44:58;17.77;;;2.20;;
66521;SDS011;53349;53.538;8.584;2024-02-04T10:47:29;11.25;;;2.35;;
66521;SDS011;53349;53.538;8.584;2024-02-04T10:49:56;14.23;;;2.33;;
66521;SDS011;53349;53.538;8.584;2024-02-04T10:52:24;16.73;;;2.67;;
66521;SDS011;53349;53.538;8.584;2024-02-04T10:54:51;8.00;;;1.93;;
66521;SDS011;53349;53.538;8.584;2024-02-04T10:57:25;15.75;;;2.42;;
66521;SDS011;53349;53.538;8.584;2024-02-04T10:59:53;16.17;;;2.60;;
66521;SDS011;53349;53.538;8.584;2024-02-04T11:02:19;15.90;;;2.80;;
66521;SDS011;53349;53.538;8.584;2024-02-04T11:04:44;14.98;;;2.78;;
66521;SDS011;53349;53.538;8.584;2024-02-04T11:07:10;16.55;;;1.98;;
66521;SDS011;53349;53.538;8.584;2024-02-04T11:09:39;12.83;;;1.80;;
66521;SDS011;53349;53.538;8.584;2024-02-04T11:12:06;13.80;;;2.40;;
66521;SDS011;53349;53.538;8.584;2024-02-04T11:14:34;8.32;;;2.00;;
66521;SDS011;53349;53.538;8.584;2024-02-04T11:26:57;11.83;;;1.70;;
66521;SDS011;53349;53.538;8.584;2024-02-04T11:29:23;14.97;;;2.13;;
66521;SDS011;53349;53.538;8.584;2024-02-04T11:31:51;18.15;;;2.72;;
66521;SDS011;53349;53.538;8.584;2024-02-04T11:34:17;11.27;;;2.00;;
66521;SDS011;53349;53.538;8.584;2024-02-04T11:36:42;15.63;;;2.30;;
66521;SDS011;53349;53.538;8.584;2024-02-04T11:39:14;14.80;;;2.63;;
66521;SDS011;53349;53.538;8.584;2024-02-04T11:41:45;13.57;;;2.10;;
66521;SDS011;53349;53.538;8.584;2024-02-04T11:44:12;12.00;;;2.03;;
66521;SDS011;53349;53.538;8.584;2024-02-04T11:46:37;12.33;;;2.27;;
66521;SDS011;53349;53.538;8.584;2024-02-04T11:49:02;14.17;;;2.37;;
66521;SDS011;53349;53.538;8.584;2024-02-04T11:51:29;14.13;;;2.57;;
66521;SDS011;53349;53.538;8.584;2024-02-04T11:53:54;16.05;;;2.30;;
66521;SDS011;53349;53.538;8.584;2024-02-04T11:56:24;11.93;;;1.90;;
66521;SDS011;53349;53.538;8.584;2024-02-04T11:58:50;11.52;;;2.10;;
66521;SDS011;53349;53.538;8.584;2024-02-04T12:01:17;9.32;;;2.70;;
66521;SDS011;53349;53.538;8.584;2024-02-04T12:03:42;13.45;;;2.42;;
66521;SDS011;53349;53.538;8.584;2024-02-04T12:06:08;8.93;;;2.00;;
66521;SDS011;53349;53.538;8.584;2024-02-04T12:08:34;9.43;;;1.87;;
66521;SDS011;53349;53.538;8.584;2024-02-04T12:11:00;8.50;;;1.92;;
66521;SDS011;53349;53.538;8.584;2024-02-04T12:13:26;9.05;;;1.90;;
66521;SDS011;53349;53.538;8.584;2024-02-04T12:15:53;16.40;;;2.97;;
66521;SDS011;53349;53.538;8.584;2024-02-04T12:18:18;14.02;;;2.70;;
66521;SDS011;53349;53.538;8.584;2024-02-04T12:20:43;10.83;;;2.17;;
66521;SDS011;53349;53.538;8.584;2024-02-04T12:23:10;10.32;;;1.98;;
66521;SDS011;53349;53.538;8.584;2024-02-04T12:25:36;11.83;;;2.13;;
66521;SDS011;53349;53.538;8.584;2024-02-04T12:28:02;8.55;;;2.05;;
66521;SDS011;53349;53.538;8.584;2024-02-04T12:30:30;12.20;;;2.83;;
66521;SDS011;53349;53.538;8.584;2024-02-04T12:32:58;9.30;;;1.80;;
66521;SDS011;53349;53.538;8.584;2024-02-04T12:35:26;13.73;;;1.73;;
66521;SDS011;53349;53.538;8.584;2024-02-04T12:37:55;10.18;;;1.70;;
66521;SDS011;53349;53.538;8.584;2024-02-04T12:40:24;9.33;;;1.90;;
66521;SDS011;53349;53.538;8.584;2024-02-04T12:42:56;7.35;;;1.55;;
66521;SDS011;53349;53.538;8.584;2024-02-04T12:45:23;12.82;;;1.85;;
66521;SDS011;53349;53.538;8.584;2024-02-04T12:47:49;10.55;;;1.60;;
66521;SDS011;53349;53.538;8.584;2024-02-04T12:50:15;11.30;;;2.23;;
66521;SDS011;53349;53.538;8.584;2024-02-04T12:52:40;8.57;;;1.50;;
66521;SDS011;53349;53.538;8.584;2024-02-04T12:55:07;8.83;;;1.80;;
66521;SDS011;53349;53.538;8.584;2024-02-04T12:57:34;15.13;;;2.03;;
66521;SDS011;53349;53.538;8.584;2024-02-04T13:00:05;12.25;;;1.45;;
66521;SDS011;53349;53.538;8.584;2024-02-04T13:02:31;11.93;;;1.75;;
66521;SDS011;53349;53.538;8.584;2024-02-04T13:04:57;13.50;;;1.73;;
66521;SDS011;53349;53.538;8.584;2024-02-04T13:07:22;11.37;;;1.63;;
66521;SDS011;53349;53.538;8.584;2024-02-04T13:09:57;9.13;;;1.58;;
66521;SDS011;53349;53.538;8.584;2024-02-04T13:12:27;12.60;;;1.92;;
66521;SDS011;53349;53.538;8.584;2024-02-04T13:14:52;10.85;;;1.55;;
66521;SDS011;53349;53.538;8.584;2024-02-04T13:17:20;10.95;;;1.65;;
66521;SDS011;53349;53.538;8.584;2024-02-04T13:19:45;12.40;;;1.60;;
66521;SDS011;53349;53.538;8.584;2024-02-04T13:22:10;7.90;;;1.27;;
66521;SDS011;53349;53.538;8.584;2024-02-04T13:24:36;11.77;;;2.03;;
66521;SDS011;53349;53.538;8.584;2024-02-04T13:27:02;12.47;;;1.53;;
66521;SDS011;53349;53.538;8.584;2024-02-04T13:29:28;8.57;;;1.70;;
66521;SDS011;53349;53.538;8.584;2024-02-04T13:31:55;11.97;;;1.93;;
66521;SDS011;53349;53.538;8.584;2024-02-04T13:34:20;11.15;;;1.67;;
66521;SDS011;53349;53.538;8.584;2024-02-04T13:36:45;12.00;;;1.43;;
66521;SDS011;53349;53.538;8.584;2024-02-04T13:39:12;10.37;;;1.60;;
66521;SDS011;53349;53.538;8.584;2024-02-04T13:41:38;9.93;;;1.38;;
66521;SDS011;53349;53.538;8.584;2024-02-04T13:44:03;12.10;;;2.00;;
66521;SDS011;53349;53.538;8.584;2024-02-04T13:46:29;9.18;;;1.20;;
66521;SDS011;53349;53.538;8.584;2024-02-04T13:48:55;10.87;;;1.77;;
66521;SDS011;53349;53.538;8.584;2024-02-04T13:51:20;9.87;;;1.20;;
66521;SDS011;53349;53.538;8.584;2024-02-04T13:53:45;14.00;;;1.50;;
66521;SDS011;53349;53.538;8.584;2024-02-04T13:56:11;7.97;;;1.60;;
66521;SDS011;53349;53.538;8.584;2024-02-04T13:58:36;11.03;;;1.70;;
66521;SDS011;53349;53.538;8.584;2024-02-04T14:01:06;8.55;;;1.35;;
66521;SDS011;53349;53.538;8.584;2024-02-04T14:03:31;10.90;;;1.90;;
66521;SDS011;53349;53.538;8.584;2024-02-04T14:05:57;9.17;;;1.40;;
66521;SDS011;53349;53.538;8.584;2024-02-04T14:08:23;12.97;;;1.60;;
66521;SDS011;53349;53.538;8.584;2024-02-04T14:10:49;8.80;;;1.75;;
66521;SDS011;53349;53.538;8.584;2024-02-04T14:13:15;7.37;;;1.60;;
66521;SDS011;53349;53.538;8.584;2024-02-04T14:15:40;13.70;;;2.15;;
66521;SDS011;53349;53.538;8.584;2024-02-04T14:18:06;11.20;;;2.13;;
66521;SDS011;53349;53.538;8.584;2024-02-04T14:20:31;11.67;;;1.83;;
66521;SDS011;53349;53.538;8.584;2024-02-04T14:22:58;10.33;;;1.90;;
66521;SDS011;53349;53.538;8.584;2024-02-04T14:25:23;9.38;;;2.10;;
66521;SDS011;53349;53.538;8.584;2024-02-04T14:27:50;10.90;;;1.75;;
66521;SDS011;53349;53.538;8.584;2024-02-04T14:30:15;10.20;;;1.43;;
66521;SDS011;53349;53.538;8.584;2024-02-04T14:32:41;15.20;;;1.75;;
66521;SDS011;53349;53.538;8.584;2024-02-04T14:35:06;8.87;;;1.70;;
66521;SDS011;53349;53.538;8.584;2024-02-04T14:37:32;8.43;;;1.70;;
66521;SDS011;53349;53.538;8.584;2024-02-04T14:39:57;12.73;;;1.77;;
66521;SDS011;53349;53.538;8.584;2024-02-04T14:42:22;15.60;;;1.90;;
66521;SDS011;53349;53.538;8.584;2024-02-04T14:44:48;21.27;;;2.03;;
66521;SDS011;53349;53.538;8.584;2024-02-04T14:47:15;9.43;;;1.60;;